Time;durP1;ratioP1;P1;durP2;ratioP2;P2;SDS_P1;SDS_P2;PMS_P1;PMS_P2;Temp;Humidity;BMP_temperature;BMP_pressure;BME280_temperature;BME280_humidity;BME280_pressure;Samples;Min_cycle;Max_cycle;Signal;HPM_P1;HPM_P2
2022/05/11 00:00:37;;;;;;;3.07;2.97;;;20.40;45.10;;;;;;5078485;28;20438;-61
2022/05/11 00:03:04;;;;;;;2.70;2.60;;;20.40;45.30;;;;;;5081147;28;20464;-61
2022/05/11 00:05:30;;;;;;;2.70;2.60;;;20.40;45.10;;;;;;5081153;27;20245;-60
2022/05/11 00:07:56;;;;;;;2.40;2.30;;;20.40;45.10;;;;;;5078368;28;20933;-60
2022/05/11 00:10:22;;;;;;;3.40;3.17;;;20.40;45.20;;;;;;5079623;27;20221;-59
2022/05/11 00:12:48;;;;;;;2.80;2.70;;;20.40;45.20;;;;;;5081065;28;20227;-59
2022/05/11 00:15:18;;;;;;;2.53;2.43;;;20.40;45.20;;;;;;5079263;27;20859;-60
2022/05/11 00:17:44;;;;;;;2.80;2.60;;;20.40;45.20;;;;;;5080351;28;20474;-59
2022/05/11 00:20:11;;;;;;;2.97;2.77;;;20.40;45.20;;;;;;5077723;27;20489;-60
2022/05/11 00:22:37;;;;;;;3.27;3.07;;;20.40;45.20;;;;;;5080623;27;20666;-59
2022/05/11 00:25:06;;;;;;;3.07;2.87;;;20.40;45.30;;;;;;5078646;28;20458;-59
2022/05/11 00:27:31;;;;;;;3.00;2.90;;;20.40;45.30;;;;;;5084091;28;20794;-60
2022/05/11 00:29:57;;;;;;;2.70;2.60;;;20.40;45.20;;;;;;5076961;28;21383;-58
2022/05/11 00:32:25;;;;;;;3.10;2.90;;;20.40;45.20;;;;;;5081994;27;20209;-59
2022/05/11 00:34:51;;;;;;;2.80;2.70;;;20.40;45.20;;;;;;5076138;28;20556;-59
2022/05/11 00:37:17;;;;;;;3.70;3.50;;;20.40;45.20;;;;;;5078225;28;20566;-60
2022/05/11 00:39:42;;;;;;;2.57;2.47;;;20.40;45.30;;;;;;5082953;27;21053;-59
2022/05/11 00:42:08;;;;;;;3.17;3.07;;;20.40;45.20;;;;;;5079319;27;20976;-60
2022/05/11 00:44:34;;;;;;;3.40;3.20;;;20.40;45.40;;;;;;5083325;28;20821;-60
2022/05/11 00:47:28;;;;;;;3.03;2.83;;;20.40;45.20;;;;;;5077908;27;20221;-59
2022/05/11 00:50:03;;;;;;;2.70;2.60;;;20.40;45.20;;;;;;5081050;28;20225;-60
2022/05/11 00:52:56;;;;;;;3.30;3.10;;;20.40;45.20;;;;;;5079759;28;20448;-60
2022/05/11 00:55:32;;;;;;;2.70;2.50;;;20.40;45.20;;;;;;5078675;28;20447;-59
2022/05/11 00:58:09;;;;;;;2.80;2.70;;;20.40;45.20;;;;;;5079912;28;20448;-59
2022/05/11 01:00:36;;;;;;;2.90;2.80;;;20.40;45.30;;;;;;5081189;28;20503;-59
2022/05/11 01:03:12;;;;;;;2.53;2.40;;;20.40;45.20;;;;;;5079407;28;20435;-60
2022/05/11 01:05:40;;;;;;;2.30;2.20;;;20.40;45.10;;;;;;5079329;27;20517;-60
2022/05/11 01:08:06;;;;;;;2.60;2.50;;;20.40;45.20;;;;;;5080028;28;20443;-59
2022/05/11 01:10:34;;;;;;;2.53;2.43;;;20.40;45.20;;;;;;5082145;28;20416;-60
2022/05/11 01:13:04;;;;;;;2.30;2.20;;;20.40;45.20;;;;;;5078192;28;20823;-60
2022/05/11 01:15:32;;;;;;;2.87;2.73;;;20.40;45.20;;;;;;5080430;27;20420;-60
2022/05/11 01:17:58;;;;;;;2.60;2.50;;;20.40;45.20;;;;;;5077121;27;20431;-58
2022/05/11 01:20:25;;;;;;;2.70;2.60;;;20.40;45.20;;;;;;5080337;27;20474;-61
2022/05/11 01:23:18;;;;;;;2.57;2.47;;;20.40;45.30;;;;;;5076830;28;20762;-59
2022/05/11 01:25:44;;;;;;;2.73;2.53;;;20.40;45.30;;;;;;5083799;28;20516;-60
2022/05/11 01:28:13;;;;;;;2.60;2.50;;;20.40;45.20;;;;;;5078749;28;20935;-59
2022/05/11 01:30:45;;;;;;;2.80;2.70;;;20.40;45.30;;;;;;5084384;28;20229;-59
2022/05/11 01:33:17;;;;;;;2.50;2.30;;;20.40;45.30;;;;;;5084661;27;20491;-59
2022/05/11 01:36:05;;;;;;;2.63;2.43;;;20.40;45.20;;;;;;5083103;28;20492;-59
2022/05/11 01:38:47;;;;;;;2.57;2.47;;;20.40;45.10;;;;;;5091527;27;20470;-59
2022/05/11 01:41:27;;;;;;;2.63;2.53;;;20.40;45.10;;;;;;5086261;28;20457;-61
2022/05/11 01:43:53;;;;;;;2.50;2.30;;;20.40;45.10;;;;;;5081416;27;21262;-60
2022/05/11 01:46:19;;;;;;;2.20;2.10;;;20.40;45.00;;;;;;5083634;28;21177;-61
2022/05/11 01:48:45;;;;;;;2.50;2.30;;;20.40;45.00;;;;;;5078877;28;20421;-60
2022/05/11 01:51:13;;;;;;;3.00;2.63;;;20.40;45.00;;;;;;5083420;27;20527;-60
2022/05/11 01:53:39;;;;;;;2.67;2.57;;;20.40;45.00;;;;;;5081012;27;20947;-59
2022/05/11 01:56:06;;;;;;;2.67;2.47;;;20.40;45.00;;;;;;5081813;27;20450;-59
2022/05/11 01:58:32;;;;;;;2.60;2.50;;;20.40;45.00;;;;;;5081275;28;20229;-59
2022/05/11 02:00:58;;;;;;;2.47;2.37;;;20.40;45.00;;;;;;5081243;27;20437;-60
2022/05/11 02:03:24;;;;;;;2.67;2.50;;;20.40;45.00;;;;;;5083308;28;20475;-59
2022/05/11 02:08:37;;;;;;;2.83;2.67;;;20.40;45.00;;;;;;5086677;27;20734;-59
2022/05/11 02:11:04;;;;;;;2.20;2.10;;;20.40;45.00;;;;;;5083598;27;20434;-57
2022/05/11 02:13:30;;;;;;;2.47;2.20;;;20.40;45.00;;;;;;5079719;27;20435;-59
2022/05/11 02:15:56;;;;;;;3.10;2.83;;;20.40;45.00;;;;;;5083582;27;20537;-59
2022/05/11 02:18:22;;;;;;;2.63;2.43;;;20.40;45.00;;;;;;5079512;27;20463;-59
2022/05/11 02:20:48;;;;;;;2.47;2.30;;;20.40;45.00;;;;;;5113442;27;20453;-61
2022/05/11 02:23:18;;;;;;;2.63;2.50;;;20.40;45.00;;;;;;5076930;27;20249;-59
2022/05/11 02:25:46;;;;;;;2.40;2.20;;;20.50;45.10;;;;;;5087718;27;20221;-59
2022/05/11 02:28:12;;;;;;;2.67;2.57;;;20.40;45.00;;;;;;5077947;27;20927;-60
2022/05/11 02:30:39;;;;;;;2.67;2.47;;;20.50;45.10;;;;;;5079119;27;20465;-59
2022/05/11 02:33:05;;;;;;;2.87;2.77;;;20.40;45.00;;;;;;5081092;28;20441;-60
2022/05/11 02:35:31;;;;;;;2.93;2.73;;;20.40;45.00;;;;;;5084066;28;20442;-60
2022/05/11 02:38:02;;;;;;;3.23;3.03;;;20.50;45.10;;;;;;5082319;27;20312;-59
2022/05/11 02:40:31;;;;;;;2.83;2.63;;;20.50;45.10;;;;;;5082009;27;20453;-60
2022/05/11 02:42:57;;;;;;;2.43;2.33;;;20.40;45.00;;;;;;5080100;27;20770;-59
2022/05/11 02:45:24;;;;;;;5.00;2.63;;;20.40;45.00;;;;;;5080464;28;20526;-59
2022/05/11 02:47:51;;;;;;;2.90;2.70;;;20.40;45.00;;;;;;5083738;27;20499;-60
2022/05/11 02:50:21;;;;;;;3.17;2.97;;;20.50;45.10;;;;;;5085174;27;20568;-59
2022/05/11 02:52:47;;;;;;;2.63;2.53;;;20.40;45.00;;;;;;5078396;27;20799;-59
2022/05/11 02:55:13;;;;;;;2.40;2.30;;;20.40;45.00;;;;;;5081901;27;20417;-61
2022/05/11 02:57:38;;;;;;;2.70;2.50;;;20.40;45.00;;;;;;5078248;27;20283;-61
2022/05/11 03:00:06;;;;;;;2.73;2.50;;;20.40;45.00;;;;;;5088189;27;20960;-59
2022/05/11 03:02:32;;;;;;;2.40;2.30;;;20.40;45.00;;;;;;5082791;27;20232;-59
2022/05/11 03:04:57;;;;;;;2.77;2.57;;;20.40;45.00;;;;;;5079215;27;20409;-59
2022/05/11 03:07:23;;;;;;;2.63;2.53;;;20.40;45.00;;;;;;5080594;27;20256;-59
2022/05/11 03:09:49;;;;;;;2.50;2.40;;;20.40;45.00;;;;;;5083307;27;20256;-59
2022/05/11 03:12:16;;;;;;;4.57;2.90;;;20.50;45.10;;;;;;5085943;27;20547;-59
2022/05/11 03:14:42;;;;;;;3.13;2.93;;;20.40;45.00;;;;;;5079630;27;20905;-59
2022/05/11 03:17:08;;;;;;;3.17;2.97;;;20.40;45.00;;;;;;5083301;27;20461;-59
2022/05/11 03:19:33;;;;;;;2.50;2.40;;;20.40;45.00;;;;;;5057513;28;20230;-59
2022/05/11 03:21:59;;;;;;;3.13;2.93;;;20.40;45.00;;;;;;5063319;28;20528;-58
2022/05/11 03:24:25;;;;;;;2.73;2.53;;;20.40;45.00;;;;;;5060930;28;20662;-59
2022/05/11 03:26:50;;;;;;;2.80;2.60;;;20.40;45.00;;;;;;5062786;28;20238;-59
2022/05/11 03:29:18;;;;;;;3.17;2.97;;;20.40;45.00;;;;;;5060197;28;20685;-59
2022/05/11 03:34:36;;;;;;;2.93;2.73;;;20.40;45.00;;;;;;5066228;28;20222;-59
2022/05/11 03:34:38;;;;;;;4.23;2.57;;;20.40;45.00;;;;;;5081006;27;20720;-59
2022/05/11 03:37:10;;;;;;;2.50;2.40;;;20.40;45.00;;;;;;5077734;28;20453;-60
2022/05/11 03:39:36;;;;;;;3.17;2.97;;;20.40;45.00;;;;;;5081462;27;20405;-58
2022/05/11 03:42:04;;;;;;;2.43;2.33;;;20.40;45.00;;;;;;5078116;28;20458;-58
2022/05/11 03:44:30;;;;;;;2.50;2.40;;;20.40;45.00;;;;;;5077101;28;20537;-59
2022/05/11 03:46:55;;;;;;;2.90;2.73;;;20.40;45.00;;;;;;5079316;28;20522;-58
2022/05/11 03:49:21;;;;;;;2.90;2.70;;;20.40;45.00;;;;;;5079746;28;20653;-59
2022/05/11 03:51:48;;;;;;;2.27;2.10;;;20.40;45.00;;;;;;5082940;28;20217;-58
2022/05/11 03:54:14;;;;;;;2.70;2.50;;;20.40;45.00;;;;;;5079606;27;20435;-59
2022/05/11 03:56:39;;;;;;;2.80;2.63;;;20.40;45.00;;;;;;5080881;27;20446;-59
2022/05/11 03:59:05;;;;;;;2.47;2.37;;;20.40;45.00;;;;;;5083410;28;20301;-59
2022/05/11 04:01:30;;;;;;;2.30;2.20;;;20.40;45.00;;;;;;5082485;27;20240;-59
2022/05/11 04:03:56;;;;;;;2.47;2.37;;;20.40;45.00;;;;;;5080333;27;21458;-58
2022/05/11 04:06:21;;;;;;;3.50;3.30;;;20.40;45.00;;;;;;5076301;28;20278;-58
2022/05/11 04:08:47;;;;;;;3.03;2.90;;;20.40;45.00;;;;;;5078327;27;20209;-59
2022/05/11 04:11:13;;;;;;;2.37;2.27;;;20.40;45.00;;;;;;5078547;27;20216;-60
2022/05/11 04:13:42;;;;;;;2.60;2.40;;;20.40;45.00;;;;;;5075954;28;20210;-59
2022/05/11 04:16:08;;;;;;;2.47;2.33;;;20.40;45.00;;;;;;5081566;27;20305;-60
2022/05/11 04:18:35;;;;;;;2.43;2.30;;;20.40;45.00;;;;;;5078740;27;21050;-59
2022/05/11 04:21:00;;;;;;;2.40;2.30;;;20.40;45.00;;;;;;5075310;28;20210;-59
2022/05/11 04:23:26;;;;;;;2.73;2.53;;;20.40;45.00;;;;;;5083751;28;20478;-58
2022/05/11 04:25:51;;;;;;;2.43;2.33;;;20.40;45.00;;;;;;5080190;28;20719;-59
2022/05/11 04:28:18;;;;;;;2.40;2.30;;;20.40;45.00;;;;;;5080242;28;20236;-59
2022/05/11 04:30:44;;;;;;;2.90;2.13;;;20.40;45.00;;;;;;5079274;27;20221;-60
2022/05/11 04:33:10;;;;;;;2.43;2.33;;;20.40;45.00;;;;;;5083818;28;20438;-61
2022/05/11 04:35:36;;;;;;;2.30;2.20;;;20.40;45.00;;;;;;5079574;28;20451;-60
2022/05/11 04:38:04;;;;;;;2.33;2.13;;;20.40;45.00;;;;;;5080622;28;20424;-59
2022/05/11 04:40:31;;;;;;;2.20;2.10;;;20.40;45.00;;;;;;5078985;27;20570;-60
2022/05/11 04:42:57;;;;;;;2.20;2.10;;;20.40;45.00;;;;;;5081599;28;20479;-61
2022/05/11 04:45:23;;;;;;;2.43;2.33;;;20.50;45.10;;;;;;5078511;28;20466;-61
2022/05/11 04:47:49;;;;;;;3.00;2.80;;;20.50;45.10;;;;;;5079093;27;20698;-61
2022/05/11 04:50:16;;;;;;;2.30;2.20;;;20.50;45.10;;;;;;5078796;28;20453;-60
2022/05/11 04:52:42;;;;;;;2.50;2.30;;;20.50;45.10;;;;;;5078320;28;20709;-60
2022/05/11 04:55:10;;;;;;;3.37;3.17;;;20.50;45.10;;;;;;5074885;27;20431;-59
2022/05/11 04:57:36;;;;;;;2.67;2.57;;;20.50;45.10;;;;;;5075727;28;20450;-59
2022/05/11 05:00:09;;;;;;;2.57;2.47;;;20.50;45.10;;;;;;5081202;28;21168;-59
2022/05/11 05:02:35;;;;;;;2.47;2.27;;;20.50;45.10;;;;;;5081633;27;20424;-59
2022/05/11 05:05:03;;;;;;;2.53;2.43;;;20.50;45.10;;;;;;5080954;28;20428;-59
2022/05/11 05:07:29;;;;;;;2.50;2.40;;;20.50;45.10;;;;;;5076092;28;20441;-59
2022/05/11 05:09:54;;;;;;;2.43;2.33;;;20.50;45.10;;;;;;5078323;28;20460;-60
2022/05/11 05:12:20;;;;;;;2.40;2.30;;;20.50;45.10;;;;;;5079520;27;20226;-59
2022/05/11 05:14:45;;;;;;;2.40;2.30;;;20.50;45.10;;;;;;5083129;27;20670;-60
2022/05/11 05:17:13;;;;;;;2.90;2.70;;;20.50;45.10;;;;;;5077601;28;20585;-59
2022/05/11 05:19:41;;;;;;;2.37;2.17;;;20.50;45.10;;;;;;5078925;28;20300;-59
2022/05/11 05:22:07;;;;;;;2.70;2.50;;;20.50;45.10;;;;;;5083848;28;20485;-59
2022/05/11 05:24:33;;;;;;;2.30;2.20;;;20.50;45.10;;;;;;5086027;28;20526;-59
2022/05/11 05:27:00;;;;;;;2.80;2.70;;;20.50;45.10;;;;;;5076901;28;20896;-59
2022/05/11 05:32:11;;;;;;;3.00;2.80;;;20.50;45.10;;;;;;5076584;28;20441;-60
2022/05/11 05:34:37;;;;;;;2.70;2.50;;;20.50;45.10;;;;;;5086179;27;20484;-60
2022/05/11 05:37:03;;;;;;;2.73;2.53;;;20.50;45.20;;;;;;5077841;27;20463;-63
2022/05/11 05:39:29;;;;;;;2.30;2.20;;;20.50;45.10;;;;;;5079791;27;20244;-61
2022/05/11 05:41:54;;;;;;;2.63;2.53;;;20.50;45.10;;;;;;5079699;28;20265;-60
2022/05/11 05:44:20;;;;;;;2.70;2.50;;;20.50;45.10;;;;;;5077022;28;20225;-59
2022/05/11 05:46:46;;;;;;;2.67;2.47;;;20.50;45.10;;;;;;5083496;28;20671;-60
2022/05/11 05:49:12;;;;;;;2.80;2.60;;;20.50;45.20;;;;;;5075421;28;20260;-59
2022/05/11 05:51:39;;;;;;;2.10;2.00;;;20.50;45.20;;;;;;5079117;28;20438;-59
2022/05/11 05:54:05;;;;;;;2.40;2.30;;;20.50;45.20;;;;;;5080312;28;20412;-59
2022/05/11 05:56:32;;;;;;;2.53;2.43;;;20.50;45.90;;;;;;5083091;28;20445;-59
2022/05/11 05:58:58;;;;;;;2.63;2.47;;;20.50;45.20;;;;;;5085654;27;20824;-60
2022/05/11 06:01:25;;;;;;;2.73;2.63;;;20.50;45.20;;;;;;5080642;27;20982;-59
2022/05/11 06:03:51;;;;;;;2.40;2.30;;;20.50;45.10;;;;;;5080591;28;20433;-60
2022/05/11 06:06:18;;;;;;;2.53;2.33;;;20.50;46.00;;;;;;5077356;28;20442;-61
2022/05/11 06:08:43;;;;;;;2.90;2.70;;;20.50;45.20;;;;;;5073636;28;20221;-60
2022/05/11 06:11:09;;;;;;;2.87;2.67;;;20.50;45.20;;;;;;5075019;28;20822;-59
2022/05/11 06:13:36;;;;;;;2.73;2.03;;;20.50;45.30;;;;;;5085479;28;20650;-60
2022/05/11 06:16:01;;;;;;;2.70;2.60;;;20.50;45.20;;;;;;5074951;27;20220;-60
2022/05/11 06:18:27;;;;;;;2.90;2.70;;;20.50;45.30;;;;;;5084224;28;20448;-59
2022/05/11 06:20:53;;;;;;;2.20;2.10;;;20.50;45.30;;;;;;5084166;28;20570;-60
2022/05/11 06:23:20;;;;;;;2.30;2.20;;;20.50;45.30;;;;;;5083206;27;20569;-61
2022/05/11 06:25:49;;;;;;;2.37;2.27;;;20.50;45.30;;;;;;5085862;27;20209;-61
2022/05/11 06:28:14;;;;;;;2.70;2.50;;;20.50;45.40;;;;;;5083338;27;20417;-60
2022/05/11 06:30:40;;;;;;;2.90;2.73;;;20.50;45.40;;;;;;5087173;27;20424;-61
2022/05/11 06:33:05;;;;;;;2.30;2.20;;;20.50;45.30;;;;;;5083711;28;20217;-59
2022/05/11 06:35:31;;;;;;;2.10;2.00;;;20.50;45.30;;;;;;5086325;28;20213;-60
2022/05/11 06:38:05;;;;;;;2.33;2.23;;;20.50;45.50;;;;;;5080720;28;20230;-59
2022/05/11 06:40:31;;;;;;;2.10;2.00;;;20.50;45.50;;;;;;5079970;28;20275;-59
2022/05/11 06:42:57;;;;;;;2.53;2.43;;;20.50;45.50;;;;;;5080661;28;20424;-59
2022/05/11 06:45:23;;;;;;;2.50;2.40;;;20.50;45.50;;;;;;5084660;28;20229;-60
2022/05/11 06:47:49;;;;;;;2.47;2.27;;;20.50;45.60;;;;;;5081384;27;20412;-60
2022/05/11 06:50:15;;;;;;;2.57;2.40;;;20.50;45.40;;;;;;5089959;28;20221;-59
2022/05/11 06:52:41;;;;;;;2.23;2.13;;;20.50;45.50;;;;;;5077313;28;20443;-61
2022/05/11 07:00:36;;;;;;;4.20;2.50;;;20.50;45.60;;;;;;5081584;27;20480;-60
2022/05/11 07:03:03;;;;;;;2.47;2.27;;;20.50;45.60;;;;;;5080858;28;20454;-59
2022/05/11 07:05:29;;;;;;;2.33;2.23;;;20.50;45.60;;;;;;5083750;28;20281;-59
2022/05/11 07:07:55;;;;;;;2.83;2.63;;;20.50;45.60;;;;;;5078921;28;20464;-59
2022/05/11 07:10:21;;;;;;;2.73;2.60;;;20.50;45.60;;;;;;5080216;27;20424;-59
2022/05/11 07:12:47;;;;;;;2.30;2.20;;;20.50;45.60;;;;;;5079969;28;20214;-59
2022/05/11 07:15:16;;;;;;;2.30;2.20;;;20.50;45.60;;;;;;5080903;27;20218;-61
2022/05/11 07:17:53;;;;;;;2.30;2.10;;;20.50;45.60;;;;;;5081364;28;20429;-60
2022/05/11 07:20:33;;;;;;;2.53;2.43;;;20.50;45.60;;;;;;5077773;27;20436;-59
2022/05/11 07:23:00;;;;;;;2.27;2.17;;;20.50;45.70;;;;;;5079535;28;20467;-60
2022/05/11 07:25:27;;;;;;;2.43;2.33;;;20.50;45.60;;;;;;5077616;28;20461;-59
2022/05/11 07:27:53;;;;;;;2.40;2.20;;;20.50;45.60;;;;;;5080010;27;20522;-60
2022/05/11 07:30:26;;;;;;;2.60;2.27;;;20.50;45.70;;;;;;5078894;28;20491;-59
2022/05/11 07:32:52;;;;;;;2.37;2.27;;;20.50;45.60;;;;;;5082114;27;20450;-60
2022/05/11 07:35:17;;;;;;;2.33;2.23;;;20.50;45.60;;;;;;5080058;28;20449;-60
2022/05/11 07:37:46;;;;;;;2.30;2.20;;;20.50;45.70;;;;;;5081974;28;20559;-61
2022/05/11 07:40:13;;;;;;;2.67;2.57;;;20.50;45.70;;;;;;5079314;28;20223;-59
2022/05/11 07:42:38;;;;;;;2.13;2.03;;;20.50;45.60;;;;;;5075617;28;20416;-59
2022/05/11 07:45:04;;;;;;;2.40;2.30;;;20.50;45.70;;;;;;5082232;28;20537;-59
2022/05/11 07:47:30;;;;;;;2.30;2.20;;;20.50;45.70;;;;;;5079044;28;20222;-59
2022/05/11 07:49:55;;;;;;;3.00;2.73;;;20.50;45.70;;;;;;5078826;28;20462;-61
2022/05/11 07:52:21;;;;;;;2.20;2.10;;;20.50;45.70;;;;;;5077454;28;20213;-59
2022/05/11 07:54:47;;;;;;;5.73;2.73;;;20.50;46.50;;;;;;5080880;28;20215;-59
2022/05/11 08:00:02;;;;;;;2.50;2.30;;;20.50;45.70;;;;;;5079713;28;20352;-60
2022/05/11 08:02:35;;;;;;;2.33;2.13;;;20.50;45.70;;;;;;5077355;27;20451;-58
2022/05/11 08:05:04;;;;;;;2.67;2.47;;;20.50;45.60;;;;;;5082420;27;20409;-59
2022/05/11 08:07:46;;;;;;;2.77;2.57;;;20.50;45.70;;;;;;5080592;28;20466;-60
2022/05/11 08:10:26;;;;;;;3.40;3.20;;;20.50;45.70;;;;;;5065780;28;20445;-59
2022/05/11 08:12:52;;;;;;;2.60;2.50;;;20.50;45.70;;;;;;5077694;27;20456;-59
2022/05/11 08:15:21;;;;;;;2.30;2.20;;;20.50;45.70;;;;;;5082171;27;20421;-60
2022/05/11 08:17:47;;;;;;;2.60;2.40;;;20.50;45.70;;;;;;5080675;28;20228;-60
2022/05/11 08:20:19;;;;;;;2.30;2.20;;;20.50;45.80;;;;;;5082847;28;20438;-59
2022/05/11 08:22:45;;;;;;;3.23;2.67;;;20.50;45.40;;;;;;5079909;28;20544;-59
2022/05/11 08:25:14;;;;;;;2.67;2.57;;;20.50;45.30;;;;;;5080234;27;20424;-59
2022/05/11 08:27:40;;;;;;;2.00;1.90;;;20.50;45.30;;;;;;5069968;28;20493;-60
2022/05/11 08:35:36;;;;;;;2.30;2.20;;;20.50;45.40;;;;;;5079815;28;20498;-59
2022/05/11 08:38:02;;;;;;;2.47;2.37;;;20.50;45.40;;;;;;5078237;28;20952;-61
2022/05/11 08:40:39;;;;;;;2.97;2.77;;;20.50;45.50;;;;;;5081886;27;20443;-61
2022/05/11 08:43:11;;;;;;;2.50;2.40;;;20.50;45.50;;;;;;5058718;28;20216;-59
2022/05/11 08:46:35;;;;;;;2.30;1.93;;;20.50;45.60;;;;;;5059376;28;20855;-59
2022/05/11 08:49:17;;;;;;;2.97;2.77;;;20.50;45.50;;;;;;5021984;28;20447;-59
2022/05/11 08:51:53;;;;;;;2.50;2.40;;;20.50;45.70;;;;;;5018953;28;21024;-60
2022/05/11 08:54:28;;;;;;;3.60;2.53;;;20.50;45.60;;;;;;5047403;28;20458;-60
2022/05/11 08:56:55;;;;;;;2.30;2.20;;;20.50;45.70;;;;;;5056429;28;20482;-59
2022/05/11 08:59:25;;;;;;;2.47;2.37;;;20.50;45.60;;;;;;5060419;28;20461;-60
2022/05/11 09:02:01;;;;;;;2.43;2.33;;;20.50;45.70;;;;;;5056721;28;20932;-60
2022/05/11 09:04:38;;;;;;;2.60;2.40;;;20.50;45.60;;;;;;5059086;28;20405;-59
2022/05/11 09:07:04;;;;;;;2.67;2.47;;;20.50;45.60;;;;;;5062762;28;20424;-60
2022/05/11 09:09:30;;;;;;;2.37;2.17;;;20.50;45.60;;;;;;5054510;28;20451;-59
2022/05/11 09:11:56;;;;;;;2.20;2.00;;;20.50;45.70;;;;;;5057519;28;20316;-59
2022/05/11 09:14:35;;;;;;;2.53;2.43;;;20.50;45.70;;;;;;5059612;28;20507;-60
2022/05/11 09:17:01;;;;;;;2.30;2.17;;;20.50;45.70;;;;;;5092237;28;20545;-59
2022/05/11 09:19:30;;;;;;;2.30;2.20;;;20.50;45.70;;;;;;5060758;28;20448;-59
2022/05/11 09:22:17;;;;;;;2.60;2.50;;;20.50;45.70;;;;;;5060560;28;20297;-59
2022/05/11 09:24:49;;;;;;;2.43;2.23;;;20.50;45.70;;;;;;5057329;28;20458;-60
2022/05/11 09:27:27;;;;;;;2.30;2.20;;;20.50;45.70;;;;;;5062354;28;20437;-59
2022/05/11 09:30:03;;;;;;;2.67;2.20;;;20.50;45.70;;;;;;5058443;28;20554;-60
2022/05/11 09:32:37;;;;;;;2.50;2.33;;;20.50;45.70;;;;;;5059870;28;20443;-59
2022/05/11 09:35:25;;;;;;;2.50;2.30;;;20.50;45.70;;;;;;5058198;28;20905;-59
2022/05/11 09:37:59;;;;;;;2.43;2.33;;;20.50;46.60;;;;;;5054258;28;20448;-60
2022/05/11 09:40:27;;;;;;;4.53;2.27;;;20.50;45.80;;;;;;5055510;28;20454;-59
2022/05/11 09:43:04;;;;;;;2.30;2.20;;;20.50;45.80;;;;;;5063132;28;20444;-60
2022/05/11 09:45:39;;;;;;;2.20;2.10;;;20.50;45.80;;;;;;5062367;28;20442;-59
2022/05/11 09:48:12;;;;;;;2.43;2.33;;;20.50;45.80;;;;;;5061708;28;20523;-60
2022/05/11 09:50:40;;;;;;;2.50;2.40;;;20.50;45.80;;;;;;5058631;28;20553;-61
2022/05/11 09:53:35;;;;;;;2.30;2.20;;;20.50;45.90;;;;;;5068308;28;20462;-59
2022/05/11 09:56:20;;;;;;;2.53;2.43;;;20.50;45.80;;;;;;5068694;28;20942;-59
2022/05/11 09:58:46;;;;;;;2.63;2.43;;;20.50;45.80;;;;;;5067797;28;20459;-61
2022/05/11 10:01:15;;;;;;;2.47;2.37;;;20.50;45.80;;;;;;5063308;28;20397;-60
2022/05/11 10:04:03;;;;;;;2.40;2.30;;;20.50;45.90;;;;;;5064483;28;20452;-60
2022/05/11 10:06:34;;;;;;;2.50;2.30;;;20.50;45.80;;;;;;5068739;28;20889;-60
2022/05/11 10:09:02;;;;;;;2.50;2.40;;;20.50;45.80;;;;;;5065849;28;20799;-60
2022/05/11 10:11:40;;;;;;;2.30;2.20;;;20.50;45.80;;;;;;5065346;28;20432;-60
2022/05/11 10:23:02;;;;;;;2.43;2.33;;;20.50;45.90;;;;;;5060304;28;20420;-60
2022/05/11 10:25:35;;;;;;;2.20;2.10;;;20.50;45.90;;;;;;5063117;28;20450;-60
2022/05/11 10:28:06;;;;;;;2.73;2.63;;;20.50;45.90;;;;;;5061550;28;20463;-59
2022/05/11 10:30:54;;;;;;;2.93;2.80;;;20.50;45.90;;;;;;5061952;28;20452;-59
2022/05/11 10:33:48;;;;;;;2.20;2.10;;;20.50;45.90;;;;;;5066472;28;20447;-59
2022/05/11 10:36:50;;;;;;;2.33;2.23;;;20.50;45.90;;;;;;5063396;28;20447;-60
2022/05/11 10:39:53;;;;;;;2.73;2.63;;;20.50;45.90;;;;;;5058192;28;20477;-59
2022/05/11 10:42:32;;;;;;;2.60;2.40;;;20.50;45.90;;;;;;5060379;28;20458;-59
2022/05/11 10:45:21;;;;;;;2.70;2.60;;;20.50;45.90;;;;;;5061384;28;20450;-59
2022/05/11 10:48:15;;;;;;;2.30;2.20;;;20.50;46.00;;;;;;5070962;27;20515;-59
2022/05/11 10:50:53;;;;;;;2.80;2.70;;;20.50;45.90;;;;;;5084378;27;20431;-59
2022/05/11 10:53:39;;;;;;;2.70;2.50;;;20.50;45.90;;;;;;5080458;28;20462;-60
2022/05/11 10:56:31;;;;;;;2.73;2.57;;;20.50;46.00;;;;;;5083785;27;20451;-60
2022/05/11 10:59:28;;;;;;;2.80;2.60;;;20.50;45.90;;;;;;5077280;28;20434;-59
2022/05/11 11:02:09;;;;;;;2.57;2.47;;;20.50;46.00;;;;;;5082416;28;20534;-60
2022/05/11 11:04:54;;;;;;;2.47;2.37;;;20.50;45.90;;;;;;5080401;28;20454;-59
2022/05/11 11:07:26;;;;;;;2.37;2.23;;;20.50;46.00;;;;;;5085067;28;20444;-60
2022/05/11 11:10:19;;;;;;;2.40;2.30;;;20.50;46.00;;;;;;5080704;28;20857;-59
2022/05/11 11:13:24;;;;;;;2.60;2.50;;;20.50;46.00;;;;;;5061080;28;20436;-61
2022/05/11 11:15:51;;;;;;;2.20;2.10;;;20.50;46.00;;;;;;5046260;28;20537;-59
2022/05/11 11:18:31;;;;;;;2.70;2.60;;;20.50;46.00;;;;;;5082539;27;20939;-59
2022/05/11 11:21:01;;;;;;;3.37;3.17;;;20.50;46.00;;;;;;5079391;27;20456;-59
2022/05/11 11:23:34;;;;;;;2.07;1.97;;;20.50;46.10;;;;;;5079838;27;20446;-59
2022/05/11 11:26:10;;;;;;;2.50;2.40;;;20.50;46.00;;;;;;5083042;27;20458;-60
2022/05/11 11:28:41;;;;;;;2.60;2.50;;;20.50;46.00;;;;;;5083340;27;20424;-60
2022/05/11 11:31:10;;;;;;;2.57;2.40;;;20.50;46.00;;;;;;5083684;28;20460;-59
2022/05/11 11:34:00;;;;;;;2.40;2.20;;;20.50;46.00;;;;;;5082953;28;20513;-60
2022/05/11 11:36:31;;;;;;;3.07;2.87;;;20.50;46.00;;;;;;5072725;28;20460;-59
2022/05/11 11:39:02;;;;;;;4.50;2.80;;;20.50;46.10;;;;;;5082940;28;20465;-60
2022/05/11 11:42:06;;;;;;;2.77;2.57;;;20.50;46.10;;;;;;5091655;27;20867;-59
2022/05/11 11:44:41;;;;;;;3.00;2.80;;;20.50;46.00;;;;;;5082630;28;20433;-60
2022/05/11 11:47:27;;;;;;;3.10;2.90;;;20.50;46.00;;;;;;5085194;28;20476;-59
2022/05/11 11:49:58;;;;;;;2.57;2.47;;;20.50;46.00;;;;;;5062122;28;20505;-60
2022/05/11 11:52:44;;;;;;;2.90;2.70;;;20.50;46.10;;;;;;5061404;28;20926;-61
2022/05/11 11:55:24;;;;;;;3.27;2.97;;;20.50;46.00;;;;;;5060572;28;20441;-60
2022/05/11 11:57:55;;;;;;;3.23;3.03;;;20.50;46.00;;;;;;5060631;28;20454;-59
2022/05/11 12:00:21;;;;;;;2.77;2.60;;;20.50;46.10;;;;;;5059325;28;20978;-59
2022/05/11 12:02:47;;;;;;;2.63;2.43;;;20.50;46.10;;;;;;5060803;28;20439;-59
2022/05/11 12:05:40;;;;;;;3.33;2.97;;;20.50;46.00;;;;;;5059704;28;20226;-60
2022/05/11 12:17:00;;;;;;;2.97;2.87;;;20.50;46.10;;;;;;5080680;27;20815;-60
2022/05/11 12:19:28;;;;;;;2.63;2.50;;;20.50;46.10;;;;;;5077469;27;21016;-60
2022/05/11 12:22:12;;;;;;;5.00;3.23;;;20.50;46.10;;;;;;5079910;27;20954;-59
2022/05/11 12:24:45;;;;;;;3.77;3.37;;;20.50;46.10;;;;;;5079325;27;20446;-61
2022/05/11 12:27:33;;;;;;;3.07;2.87;;;20.50;46.60;;;;;;5082050;27;20450;-59
2022/05/11 12:30:04;;;;;;;3.23;3.03;;;20.50;46.10;;;;;;5077803;27;20446;-59
2022/05/11 12:32:36;;;;;;;3.40;3.20;;;20.50;46.10;;;;;;5083529;27;20888;-60
2022/05/11 12:35:17;;;;;;;2.77;2.57;;;20.50;46.10;;;;;;5077648;27;20434;-61
2022/05/11 12:37:43;;;;;;;3.07;2.87;;;20.50;46.10;;;;;;5088511;27;20514;-61
2022/05/11 12:40:17;;;;;;;2.90;2.70;;;20.50;46.10;;;;;;5080261;27;20434;-60
2022/05/11 12:42:52;;;;;;;3.23;3.03;;;20.50;46.00;;;;;;5082522;27;20210;-61
2022/05/11 12:45:40;;;;;;;3.27;3.10;;;20.50;46.10;;;;;;5083340;27;20446;-60
2022/05/11 12:48:06;;;;;;;3.13;2.93;;;20.50;46.10;;;;;;5088774;27;20431;-60
2022/05/11 12:50:47;;;;;;;3.37;3.17;;;20.50;46.00;;;;;;5085671;27;20449;-60
2022/05/11 12:53:20;;;;;;;3.07;2.80;;;20.50;46.10;;;;;;5077471;27;20798;-60
2022/05/11 12:55:49;;;;;;;2.90;2.70;;;20.50;46.10;;;;;;5077713;27;20458;-62
2022/05/11 12:58:25;;;;;;;3.00;2.80;;;20.50;46.90;;;;;;5083448;27;20562;-60
2022/05/11 13:01:05;;;;;;;3.10;2.90;;;20.50;46.00;;;;;;5078921;27;20570;-60
2022/05/11 13:03:36;;;;;;;3.50;3.20;;;20.50;46.10;;;;;;5082419;27;20886;-59
2022/05/11 13:06:26;;;;;;;3.33;3.13;;;20.50;46.10;;;;;;5083415;27;20457;-60
2022/05/11 13:08:56;;;;;;;3.53;3.27;;;20.50;46.00;;;;;;5079321;27;20445;-59
2022/05/11 13:11:25;;;;;;;3.30;3.10;;;20.50;46.10;;;;;;5079987;27;20496;-59
2022/05/11 13:13:55;;;;;;;3.23;3.03;;;20.50;46.10;;;;;;5080036;27;20485;-59
2022/05/11 13:16:31;;;;;;;3.37;3.13;;;20.50;46.10;;;;;;5087037;27;20436;-60
2022/05/11 13:19:21;;;;;;;4.30;4.07;;;20.50;46.10;;;;;;5077998;27;20502;-60
2022/05/11 13:21:48;;;;;;;2.83;2.63;;;20.50;46.10;;;;;;5083265;27;20439;-60
2022/05/11 13:24:14;;;;;;;3.63;3.43;;;20.50;46.00;;;;;;5078551;27;20924;-60
2022/05/11 13:26:43;;;;;;;3.40;3.13;;;20.50;46.10;;;;;;5087776;27;20417;-59
2022/05/11 13:29:15;;;;;;;3.03;2.83;;;20.50;46.00;;;;;;5083591;27;20461;-60
2022/05/11 13:31:42;;;;;;;3.20;3.00;;;20.50;46.10;;;;;;5087843;27;21014;-60
2022/05/11 13:34:32;;;;;;;3.43;3.23;;;20.50;46.10;;;;;;5083529;27;20433;-59
2022/05/11 13:36:59;;;;;;;3.70;3.50;;;20.50;46.10;;;;;;5087580;27;20453;-59
2022/05/11 13:39:37;;;;;;;3.47;3.27;;;20.50;46.10;;;;;;5079175;28;20449;-58
2022/05/11 13:42:15;;;;;;;3.40;3.20;;;20.50;46.10;;;;;;5086204;27;20454;-59
2022/05/11 13:44:48;;;;;;;3.20;3.00;;;20.50;46.10;;;;;;5081617;27;20453;-60